Time;durP1;ratioP1;P1;durP2;ratioP2;P2;SDS_P1;SDS_P2;PMS_P1;PMS_P2;Temp;Humidity;BMP_temperature;BMP_pressure;BME280_temperature;BME280_humidity;BME280_pressure;Samples;Min_cycle;Max_cycle;Signal;HPM_P1;HPM_P2
2021/03/31 00:01:31;;;;;;;10.37;4.90;;;13.80;83.80;;;;;;5123575;28;20505;-40
2021/03/31 00:04:01;;;;;;;11.03;5.80;;;13.70;81.10;;;;;;5124069;28;20441;-41
2021/03/31 00:06:31;;;;;;;10.77;4.60;;;13.50;83.30;;;;;;5123636;28;20444;-40
2021/03/31 00:09:01;;;;;;;9.47;5.20;;;13.40;84.70;;;;;;5123644;28;20501;-41
2021/03/31 00:11:32;;;;;;;8.83;4.90;;;13.30;85.00;;;;;;5122951;28;20478;-42
2021/03/31 00:14:03;;;;;;;5.53;4.00;;;13.40;86.00;;;;;;5123754;28;20473;-40
2021/03/31 00:16:33;;;;;;;9.23;5.30;;;13.50;84.70;;;;;;5123527;28;20485;-42
2021/03/31 00:19:03;;;;;;;9.53;4.67;;;13.40;85.00;;;;;;5124211;28;20445;-42
2021/03/31 00:21:33;;;;;;;10.00;4.40;;;13.20;85.70;;;;;;5123424;28;20458;-42
2021/03/31 00:24:03;;;;;;;10.07;5.03;;;13.10;85.50;;;;;;5123100;28;20514;-42
2021/03/31 00:26:34;;;;;;;11.33;5.27;;;13.10;86.90;;;;;;5121151;28;20453;-42
2021/03/31 00:29:05;;;;;;;9.07;6.20;;;13.10;86.20;;;;;;5123440;28;20475;-42
2021/03/31 00:31:35;;;;;;;7.10;5.77;;;13.00;86.50;;;;;;5122722;28;20441;-42
2021/03/31 00:34:05;;;;;;;10.70;5.23;;;13.10;86.30;;;;;;5123967;28;20941;-42
2021/03/31 00:36:35;;;;;;;10.67;5.50;;;12.90;85.80;;;;;;5122194;28;20489;-42
2021/03/31 00:39:07;;;;;;;7.63;5.00;;;12.80;86.20;;;;;;5117863;28;20459;-43
2021/03/31 00:41:39;;;;;;;11.20;5.20;;;12.60;88.40;;;;;;5119190;28;20452;-41
2021/03/31 00:44:10;;;;;;;7.63;5.10;;;12.60;88.70;;;;;;5122881;28;20491;-41
2021/03/31 00:46:40;;;;;;;7.80;5.00;;;12.60;91.90;;;;;;5122489;28;20521;-42
2021/03/31 00:49:11;;;;;;;10.87;5.17;;;12.70;91.50;;;;;;5123373;28;20452;-42
2021/03/31 00:51:41;;;;;;;16.23;5.77;;;12.70;93.80;;;;;;5122173;28;20453;-41
2021/03/31 00:54:12;;;;;;;7.57;4.63;;;12.70;90.40;;;;;;5122973;28;20448;-42
2021/03/31 00:56:43;;;;;;;6.63;5.17;;;12.60;89.10;;;;;;5120503;28;20514;-42
2021/03/31 00:59:13;;;;;;;9.43;5.80;;;12.40;91.10;;;;;;5122749;28;20975;-42
2021/03/31 01:01:44;;;;;;;9.80;5.47;;;12.40;90.90;;;;;;5122083;28;20448;-42
2021/03/31 01:04:14;;;;;;;13.77;5.90;;;12.40;91.10;;;;;;5122440;28;20940;-43
2021/03/31 01:06:44;;;;;;;9.60;5.40;;;12.40;91.30;;;;;;5124224;28;20449;-43
2021/03/31 01:09:14;;;;;;;8.63;5.73;;;12.20;91.20;;;;;;5126463;28;20449;-44
2021/03/31 01:11:52;;;;;;;8.70;5.70;;;12.20;91.60;;;;;;5125331;28;20487;-41
2021/03/31 01:14:33;;;;;;;7.77;5.30;;;12.20;92.10;;;;;;5125743;28;20447;-42
2021/03/31 01:17:11;;;;;;;11.80;6.40;;;12.20;91.50;;;;;;5125410;28;20485;-40
2021/03/31 01:20:08;;;;;;;12.67;6.00;;;12.10;92.20;;;;;;5126528;28;20472;-42
2021/03/31 01:23:13;;;;;;;9.25;5.85;;;12.00;92.50;;;;;;5097472;28;20467;-43
2021/03/31 01:25:49;;;;;;;6.30;4.60;;;12.00;92.80;;;;;;5126952;28;20220;-41
2021/03/31 01:28:41;;;;;;;9.50;5.03;;;11.90;92.30;;;;;;5125739;28;20512;-41
2021/03/31 01:31:37;;;;;;;8.88;5.40;;;11.90;91.90;;;;;;5125438;28;20201;-41
2021/03/31 01:34:36;;;;;;;9.43;5.25;;;11.80;92.50;;;;;;5125927;28;20255;-41
2021/03/31 01:37:13;;;;;;;5.93;4.00;;;11.80;93.30;;;;;;5124835;28;20253;-41
2021/03/31 01:39:46;;;;;;;7.03;5.00;;;11.80;92.90;;;;;;5126379;28;20582;-42
2021/03/31 01:42:19;;;;;;;15.77;4.88;;;11.70;92.50;;;;;;5124981;28;20523;-42
2021/03/31 01:44:54;;;;;;;16.10;5.93;;;11.70;91.70;;;;;;5125296;28;20223;-42
2021/03/31 01:47:27;;;;;;;9.30;5.88;;;11.60;92.20;;;;;;5125792;28;20221;-41
2021/03/31 01:50:00;;;;;;;10.32;4.97;;;11.60;92.80;;;;;;5126087;28;20198;-41
2021/03/31 01:52:31;;;;;;;9.82;5.03;;;11.60;93.50;;;;;;5125414;28;20225;-42
2021/03/31 01:55:02;;;;;;;10.27;5.43;;;11.40;93.40;;;;;;5125520;28;20521;-42
2021/03/31 01:57:32;;;;;;;12.00;5.32;;;11.40;93.20;;;;;;5124079;28;20318;-41
2021/03/31 02:00:05;;;;;;;8.43;5.30;;;11.30;94.10;;;;;;5125145;28;20300;-42
2021/03/31 02:02:36;;;;;;;7.10;5.50;;;11.20;94.20;;;;;;5124524;28;20221;-42
2021/03/31 02:05:10;;;;;;;8.10;4.93;;;11.20;95.20;;;;;;5126039;28;20260;-41
2021/03/31 02:07:41;;;;;;;8.65;5.50;;;11.10;94.70;;;;;;5120671;28;20220;-42
2021/03/31 02:10:13;;;;;;;12.33;4.77;;;11.10;94.80;;;;;;5125021;28;20194;-42
2021/03/31 02:12:45;;;;;;;7.72;4.50;;;11.10;95.30;;;;;;5122628;28;20467;-41
2021/03/31 02:15:21;;;;;;;9.68;5.25;;;11.10;95.80;;;;;;5124817;28;20197;-40
2021/03/31 02:17:52;;;;;;;8.07;5.20;;;11.00;95.70;;;;;;5123476;28;20714;-41
2021/03/31 02:20:23;;;;;;;10.15;5.35;;;10.90;96.20;;;;;;5109813;28;20455;-42
2021/03/31 02:22:54;;;;;;;9.60;5.25;;;10.80;96.50;;;;;;5124216;28;20315;-40
2021/03/31 02:25:24;;;;;;;11.93;5.65;;;10.80;97.00;;;;;;5121795;28;20207;-41
2021/03/31 02:27:55;;;;;;;8.43;4.55;;;10.70;97.00;;;;;;5123631;28;20211;-40
2021/03/31 02:30:27;;;;;;;14.35;5.18;;;10.70;97.00;;;;;;5125495;28;20205;-41
2021/03/31 02:33:01;;;;;;;11.07;5.20;;;10.60;97.10;;;;;;5124960;28;20595;-40
2021/03/31 02:35:34;;;;;;;8.68;5.47;;;10.60;97.20;;;;;;5125803;28;20254;-42
2021/03/31 02:38:17;;;;;;;9.35;5.07;;;10.50;98.40;;;;;;5125561;28;20205;-42
2021/03/31 02:40:48;;;;;;;9.70;5.72;;;10.30;99.10;;;;;;5125422;28;20234;-43
2021/03/31 02:43:20;;;;;;;13.73;5.57;;;10.30;99.30;;;;;;5123845;28;20604;-40
2021/03/31 02:45:55;;;;;;;14.38;5.55;;;10.20;99.80;;;;;;5124437;28;20589;-41
2021/03/31 02:48:26;;;;;;;8.43;5.70;;;10.10;99.80;;;;;;5122333;28;20290;-41
2021/03/31 02:50:59;;;;;;;7.13;5.28;;;10.10;99.90;;;;;;5119518;28;20265;-41
2021/03/31 02:53:29;;;;;;;9.77;6.30;;;10.20;99.40;;;;;;5122322;28;20211;-41
2021/03/31 02:56:04;;;;;;;7.40;5.80;;;10.00;99.90;;;;;;5121744;28;20196;-41
2021/03/31 02:58:35;;;;;;;12.45;7.15;;;10.00;99.90;;;;;;5119685;28;20219;-43
2021/03/31 03:01:05;;;;;;;12.80;6.95;;;9.90;99.90;;;;;;5123724;28;20206;-41
2021/03/31 03:03:36;;;;;;;15.52;8.10;;;9.80;99.90;;;;;;5122760;28;20798;-40
2021/03/31 03:06:08;;;;;;;12.65;8.40;;;9.90;99.90;;;;;;5121254;28;20196;-41
2021/03/31 03:08:39;;;;;;;12.10;7.60;;;9.80;99.90;;;;;;5124437;28;20634;-40
2021/03/31 03:11:11;;;;;;;9.27;7.07;;;9.70;99.90;;;;;;5122813;28;20639;-41
2021/03/31 03:13:43;;;;;;;13.60;7.82;;;9.60;99.90;;;;;;5121082;28;20306;-40
2021/03/31 03:16:14;;;;;;;15.27;7.85;;;9.50;99.90;;;;;;5123595;28;20574;-40
2021/03/31 03:18:45;;;;;;;8.95;7.40;;;9.40;99.90;;;;;;5124564;28;20529;-44
2021/03/31 03:21:17;;;;;;;13.43;7.13;;;9.30;99.90;;;;;;5123148;28;20197;-43
2021/03/31 03:23:48;;;;;;;13.18;7.80;;;9.20;99.90;;;;;;5125070;27;20200;-40
2021/03/31 03:26:18;;;;;;;11.43;7.75;;;9.10;99.90;;;;;;5123003;28;20356;-40
2021/03/31 03:28:50;;;;;;;13.25;8.13;;;9.10;99.90;;;;;;5123830;28;20205;-42
2021/03/31 03:31:20;;;;;;;9.55;7.25;;;9.00;99.90;;;;;;5122765;28;20654;-42
2021/03/31 03:33:50;;;;;;;11.75;7.20;;;8.90;99.90;;;;;;5123439;28;20209;-42
2021/03/31 03:36:22;;;;;;;9.48;6.55;;;8.90;99.90;;;;;;5122985;28;20231;-41
2021/03/31 03:38:53;;;;;;;9.63;7.15;;;8.80;99.90;;;;;;5124056;28;20261;-42
2021/03/31 03:41:24;;;;;;;12.85;7.28;;;8.70;99.90;;;;;;5122475;28;20218;-42
2021/03/31 03:43:57;;;;;;;11.30;8.25;;;8.60;99.90;;;;;;5122765;28;20269;-40
2021/03/31 03:46:32;;;;;;;11.18;7.55;;;8.50;99.90;;;;;;5122494;28;20203;-42
2021/03/31 03:49:04;;;;;;;10.95;7.30;;;8.40;99.90;;;;;;5116466;28;20430;-42
2021/03/31 03:51:36;;;;;;;11.85;8.00;;;8.50;99.90;;;;;;5122458;28;20201;-41
2021/03/31 03:54:11;;;;;;;9.45;6.95;;;8.40;99.90;;;;;;5119973;28;20200;-43
2021/03/31 03:56:46;;;;;;;11.27;7.72;;;8.40;99.90;;;;;;5120416;28;20219;-40
2021/03/31 03:59:20;;;;;;;12.20;8.60;;;8.50;99.90;;;;;;5123296;28;20203;-41
2021/03/31 04:01:51;;;;;;;14.38;8.57;;;8.60;99.90;;;;;;5123111;28;20212;-43
2021/03/31 04:04:22;;;;;;;11.77;8.32;;;8.50;99.90;;;;;;5122794;28;20652;-42
2021/03/31 04:06:58;;;;;;;11.00;8.18;;;8.40;99.90;;;;;;5122872;28;20206;-41
2021/03/31 04:09:29;;;;;;;10.13;8.70;;;8.30;99.90;;;;;;5123975;28;20191;-42
2021/03/31 04:12:00;;;;;;;14.65;8.80;;;8.30;99.90;;;;;;5122377;28;20208;-42
2021/03/31 04:14:30;;;;;;;12.80;9.05;;;8.10;99.90;;;;;;5118677;28;20244;-42
2021/03/31 04:17:02;;;;;;;12.32;9.10;;;8.10;99.90;;;;;;5122372;28;20330;-41
2021/03/31 04:19:33;;;;;;;10.65;8.18;;;8.10;99.90;;;;;;5123166;28;20208;-42
2021/03/31 04:22:06;;;;;;;12.55;9.65;;;7.90;99.90;;;;;;5122719;28;20210;-41
2021/03/31 04:24:36;;;;;;;11.57;9.02;;;7.90;99.90;;;;;;5114908;28;20211;-41
2021/03/31 04:27:10;;;;;;;9.57;8.63;;;7.80;99.90;;;;;;5118396;28;20204;-41
2021/03/31 04:29:42;;;;;;;12.82;8.52;;;7.70;99.90;;;;;;5122981;28;20211;-42
2021/03/31 04:32:16;;;;;;;13.48;9.00;;;7.70;99.90;;;;;;5122297;28;20223;-42
2021/03/31 04:34:47;;;;;;;12.02;9.10;;;7.70;99.90;;;;;;5108726;28;20195;-43
2021/03/31 04:37:19;;;;;;;14.38;9.73;;;7.60;99.90;;;;;;5122278;28;20761;-40
2021/03/31 04:39:49;;;;;;;15.55;10.50;;;7.60;99.90;;;;;;5124976;28;20292;-43
2021/03/31 04:42:19;;;;;;;13.48;10.18;;;7.60;99.90;;;;;;5124045;28;20208;-40
2021/03/31 04:45:26;;;;;;;12.23;9.52;;;7.60;99.90;;;;;;5125718;28;20240;-41
2021/03/31 04:47:56;;;;;;;13.65;9.02;;;7.60;99.90;;;;;;5126252;28;20226;-40
2021/03/31 04:50:30;;;;;;;11.80;9.27;;;7.50;99.90;;;;;;5123265;28;20306;-40
2021/03/31 04:53:01;;;;;;;17.30;10.45;;;7.40;99.90;;;;;;5126170;28;20207;-41
2021/03/31 04:55:32;;;;;;;10.80;8.93;;;7.40;99.90;;;;;;5127237;28;20199;-41
2021/03/31 04:58:02;;;;;;;13.40;9.27;;;7.30;99.90;;;;;;5125896;28;20246;-40
2021/03/31 05:00:32;;;;;;;11.63;8.65;;;7.20;99.90;;;;;;5126177;28;20204;-41
2021/03/31 05:03:02;;;;;;;13.27;9.30;;;7.10;99.90;;;;;;5125167;28;20242;-41
2021/03/31 05:05:32;;;;;;;14.13;9.65;;;7.10;99.90;;;;;;5127205;28;20285;-41
2021/03/31 05:08:03;;;;;;;13.63;9.10;;;7.00;99.90;;;;;;5126238;28;20199;-41
2021/03/31 05:10:34;;;;;;;13.20;9.48;;;7.00;99.90;;;;;;5126356;28;20204;-42
2021/03/31 05:13:05;;;;;;;14.23;9.45;;;7.00;99.90;;;;;;5125195;28;20222;-41
2021/03/31 05:15:35;;;;;;;11.70;9.35;;;6.90;99.90;;;;;;5126826;28;20204;-41
2021/03/31 05:18:07;;;;;;;14.85;8.93;;;7.00;99.90;;;;;;5124850;28;20236;-41
2021/03/31 05:20:37;;;;;;;12.90;9.70;;;7.10;99.90;;;;;;5122343;28;20302;-43
2021/03/31 05:23:11;;;;;;;13.18;10.07;;;7.20;99.90;;;;;;5124645;28;20224;-41
2021/03/31 05:25:41;;;;;;;13.70;9.23;;;7.10;99.90;;;;;;5126487;28;20208;-41
2021/03/31 05:28:13;;;;;;;18.75;9.93;;;7.00;99.90;;;;;;5125062;28;20218;-40
2021/03/31 05:30:49;;;;;;;15.15;9.75;;;7.00;99.90;;;;;;5125790;28;20223;-43
2021/03/31 05:33:19;;;;;;;12.52;8.38;;;7.10;99.90;;;;;;5126350;28;20200;-41
2021/03/31 05:35:57;;;;;;;11.27;9.45;;;7.20;99.90;;;;;;5125651;28;20204;-41
2021/03/31 05:38:29;;;;;;;13.20;9.07;;;7.20;99.90;;;;;;5120114;28;20219;-41
2021/03/31 05:41:02;;;;;;;13.88;8.80;;;7.20;99.90;;;;;;5125558;28;20204;-41
2021/03/31 05:43:36;;;;;;;12.20;9.02;;;7.20;99.90;;;;;;5124790;28;20235;-40
2021/03/31 05:46:26;;;;;;;14.48;9.07;;;7.10;99.90;;;;;;5122482;28;20207;-41
2021/03/31 05:48:58;;;;;;;11.98;8.65;;;7.10;99.90;;;;;;5125718;28;20759;-40
2021/03/31 05:51:28;;;;;;;15.20;8.68;;;7.10;99.90;;;;;;5125947;28;20252;-40
2021/03/31 05:54:00;;;;;;;11.13;8.70;;;7.00;99.90;;;;;;5125526;28;20230;-40
2021/03/31 05:56:33;;;;;;;11.82;9.77;;;7.10;99.90;;;;;;5118240;28;20204;-40
2021/03/31 05:59:05;;;;;;;11.23;9.82;;;7.10;99.90;;;;;;5125388;28;20219;-41
2021/03/31 06:01:35;;;;;;;13.38;10.45;;;7.10;99.90;;;;;;5125333;28;20287;-41
2021/03/31 06:04:08;;;;;;;13.70;10.02;;;7.10;99.90;;;;;;5124671;28;21254;-39
2021/03/31 06:06:43;;;;;;;14.07;9.70;;;7.00;99.90;;;;;;5125776;28;20259;-40
2021/03/31 06:09:17;;;;;;;11.32;8.90;;;7.00;99.90;;;;;;5115174;28;20207;-41
2021/03/31 06:11:51;;;;;;;14.38;8.95;;;7.00;99.90;;;;;;5124449;28;20588;-40
2021/03/31 06:14:35;;;;;;;10.95;8.57;;;7.00;99.90;;;;;;5124232;28;20218;-41
2021/03/31 06:17:09;;;;;;;17.17;9.50;;;7.00;99.90;;;;;;5124647;28;20212;-41
2021/03/31 06:19:41;;;;;;;12.30;9.25;;;7.00;99.90;;;;;;5125339;28;20253;-41
2021/03/31 06:22:25;;;;;;;15.95;10.05;;;6.80;99.90;;;;;;5124173;28;20195;-41
2021/03/31 06:25:10;;;;;;;9.88;8.88;;;6.70;99.90;;;;;;5124917;28;20210;-41
2021/03/31 06:27:43;;;;;;;16.05;9.68;;;6.70;99.90;;;;;;5118678;28;20216;-40
2021/03/31 06:30:22;;;;;;;12.55;8.85;;;6.70;99.90;;;;;;5125409;28;20211;-40
2021/03/31 06:32:53;;;;;;;13.30;9.50;;;6.70;99.90;;;;;;5124731;28;20200;-40
2021/03/31 06:35:25;;;;;;;13.48;8.57;;;6.70;99.90;;;;;;5115990;28;20314;-39
2021/03/31 06:38:08;;;;;;;12.55;9.13;;;6.50;99.90;;;;;;5124548;28;20227;-41
2021/03/31 06:40:44;;;;;;;13.77;9.65;;;6.50;99.90;;;;;;5123695;28;20191;-40
2021/03/31 06:43:19;;;;;;;12.70;8.73;;;6.40;99.90;;;;;;5124221;28;20235;-40
2021/03/31 06:45:54;;;;;;;12.80;8.20;;;6.30;99.90;;;;;;5123832;28;20203;-40
2021/03/31 06:48:26;;;;;;;10.13;7.68;;;6.20;99.90;;;;;;5123969;28;20237;-40
2021/03/31 06:50:56;;;;;;;14.13;8.77;;;6.20;99.90;;;;;;5124574;28;20211;-41
2021/03/31 06:53:30;;;;;;;15.13;10.30;;;6.10;99.90;;;;;;5124557;28;20204;-40
2021/03/31 06:56:03;;;;;;;11.43;8.48;;;6.10;99.90;;;;;;5124104;28;20231;-43
2021/03/31 06:58:33;;;;;;;12.85;8.25;;;6.10;99.90;;;;;;5121906;28;20223;-41
2021/03/31 07:01:20;;;;;;;11.88;7.65;;;6.00;99.90;;;;;;5124600;28;20215;-40
2021/03/31 07:03:50;;;;;;;11.77;8.68;;;5.90;99.90;;;;;;5123204;28;20212;-40
2021/03/31 07:06:20;;;;;;;15.10;8.45;;;5.80;99.90;;;;;;5123297;28;20208;-41
2021/03/31 07:08:50;;;;;;;14.35;9.02;;;5.80;99.90;;;;;;5111339;28;20643;-40
2021/03/31 07:11:41;;;;;;;14.88;8.85;;;5.80;99.90;;;;;;5123341;28;20253;-41
2021/03/31 07:14:12;;;;;;;11.27;8.10;;;5.80;99.90;;;;;;5123961;28;20208;-39
2021/03/31 07:16:44;;;;;;;13.20;8.68;;;5.70;99.90;;;;;;5122861;28;20191;-41
2021/03/31 07:19:14;;;;;;;12.20;9.45;;;5.70;99.90;;;;;;5123771;28;20219;-41
2021/03/31 07:22:07;;;;;;;16.02;9.43;;;5.70;99.90;;;;;;5123208;28;20207;-40
2021/03/31 07:24:37;;;;;;;15.52;9.70;;;5.80;99.90;;;;;;5108833;28;20208;-41
2021/03/31 07:27:10;;;;;;;12.00;8.60;;;5.70;99.90;;;;;;5123001;28;20249;-41
2021/03/31 07:30:05;;;;;;;13.77;9.50;;;5.60;99.90;;;;;;5124242;28;20203;-40
2021/03/31 07:32:39;;;;;;;14.68;9.15;;;5.60;99.90;;;;;;5118639;28;20208;-41
2021/03/31 07:35:11;;;;;;;14.45;9.27;;;5.60;99.90;;;;;;5124052;28;20688;-40
2021/03/31 07:37:42;;;;;;;13.63;8.93;;;5.60;99.90;;;;;;5123293;28;20219;-40
2021/03/31 07:40:14;;;;;;;15.85;10.27;;;5.60;99.90;;;;;;5124070;28;20204;-41
2021/03/31 07:42:48;;;;;;;11.20;9.77;;;5.70;99.90;;;;;;5122797;28;20249;-40
2021/03/31 07:45:23;;;;;;;15.93;10.07;;;5.60;99.90;;;;;;5123473;28;20207;-40
2021/03/31 07:47:54;;;;;;;15.90;10.30;;;5.60;99.90;;;;;;5123472;28;20211;-41
2021/03/31 07:50:25;;;;;;;16.92;10.63;;;5.50;99.90;;;;;;5123439;28;20211;-41
2021/03/31 07:52:57;;;;;;;15.15;9.15;;;5.50;99.90;;;;;;5123525;28;20210;-38
2021/03/31 07:55:32;;;;;;;14.10;9.95;;;5.50;99.90;;;;;;5122919;28;20211;-40
2021/03/31 07:58:29;;;;;;;17.40;11.73;;;5.40;99.90;;;;;;5121994;28;20223;-42
2021/03/31 08:01:07;;;;;;;19.27;11.00;;;5.40;99.90;;;;;;5122455;28;20212;-40
2021/03/31 08:03:41;;;;;;;12.95;9.70;;;5.30;99.90;;;;;;5123288;28;20199;-40
2021/03/31 08:06:30;;;;;;;19.42;11.23;;;5.30;99.90;;;;;;5120448;28;20208;-39
2021/03/31 08:09:04;;;;;;;16.30;10.30;;;5.30;99.90;;;;;;5123473;28;20195;-41
2021/03/31 08:12:05;;;;;;;12.15;9.88;;;5.30;99.90;;;;;;5122785;28;20203;-40
2021/03/31 08:14:44;;;;;;;14.43;9.35;;;5.10;99.90;;;;;;5110622;28;20203;-40
2021/03/31 08:17:31;;;;;;;12.70;9.65;;;5.10;99.90;;;;;;5118242;28;20219;-39
2021/03/31 08:20:01;;;;;;;15.45;9.23;;;5.00;99.90;;;;;;5122704;28;20257;-41
2021/03/31 08:22:37;;;;;;;14.07;10.15;;;5.00;99.90;;;;;;5122677;28;20300;-40
2021/03/31 08:25:21;;;;;;;15.07;10.63;;;4.90;99.90;;;;;;5122437;28;21601;-39
2021/03/31 08:28:00;;;;;;;19.25;9.98;;;4.90;99.90;;;;;;5121074;28;20292;-40
2021/03/31 08:30:32;;;;;;;13.57;10.05;;;4.90;99.90;;;;;;5121677;28;20692;-42
2021/03/31 08:33:03;;;;;;;11.82;10.60;;;4.90;99.90;;;;;;5122749;28;20199;-39
2021/03/31 08:35:34;;;;;;;19.23;9.88;;;4.90;99.90;;;;;;5123135;28;20203;-37
2021/03/31 08:38:25;;;;;;;20.17;11.90;;;4.80;99.90;;;;;;5122071;28;20314;-38
2021/03/31 08:40:55;;;;;;;15.90;10.05;;;4.80;99.90;;;;;;5123038;28;20533;-39
2021/03/31 08:43:25;;;;;;;13.63;9.60;;;4.80;99.90;;;;;;5122018;28;20231;-39
2021/03/31 08:46:03;;;;;;;13.13;9.82;;;4.70;99.90;;;;;;5122565;28;20212;-41
2021/03/31 08:48:43;;;;;;;17.85;10.60;;;4.70;99.90;;;;;;5120713;28;20199;-40
2021/03/31 08:51:16;;;;;;;15.77;9.75;;;4.70;99.90;;;;;;5123107;28;20638;-40
2021/03/31 08:53:46;;;;;;;16.65;10.60;;;4.60;99.90;;;;;;5123294;28;20317;-37
2021/03/31 08:56:20;;;;;;;12.45;10.18;;;4.50;99.90;;;;;;5121726;28;20200;-40
2021/03/31 08:58:53;;;;;;;15.70;10.23;;;4.40;99.90;;;;;;5122390;28;20223;-41
2021/03/31 09:01:29;;;;;;;15.18;10.70;;;4.40;99.90;;;;;;5122263;28;20204;-39
2021/03/31 09:04:22;;;;;;;14.73;9.90;;;4.30;99.90;;;;;;5122604;28;20535;-41
2021/03/31 09:06:52;;;;;;;19.10;11.70;;;4.30;99.90;;;;;;5112043;28;20212;-38
2021/03/31 09:09:23;;;;;;;17.30;11.48;;;4.40;99.90;;;;;;5122821;28;20196;-41
2021/03/31 09:11:59;;;;;;;15.55;11.30;;;4.40;99.90;;;;;;5121523;28;20241;-40
2021/03/31 09:14:30;;;;;;;18.13;10.90;;;4.30;99.90;;;;;;5118618;28;20195;-41
2021/03/31 09:17:03;;;;;;;18.17;11.88;;;4.30;99.90;;;;;;5121704;28;20286;-40
2021/03/31 09:19:34;;;;;;;17.80;11.10;;;4.30;99.90;;;;;;5122289;28;20289;-40
2021/03/31 09:22:08;;;;;;;18.80;11.15;;;4.20;99.90;;;;;;5121777;28;20225;-41
2021/03/31 09:24:41;;;;;;;20.40;10.82;;;4.20;99.90;;;;;;5119448;28;20215;-38
2021/03/31 09:27:13;;;;;;;18.88;10.63;;;4.10;99.90;;;;;;5114898;28;20211;-40
2021/03/31 09:29:45;;;;;;;16.50;11.18;;;4.10;99.90;;;;;;5125649;28;20227;-40
2021/03/31 09:32:38;;;;;;;22.02;11.68;;;4.10;99.90;;;;;;5119874;28;20208;-41
2021/03/31 09:35:12;;;;;;;14.80;11.13;;;4.10;99.90;;;;;;5116056;28;20211;-40
2021/03/31 09:38:03;;;;;;;16.40;10.65;;;4.10;99.90;;;;;;5125204;28;20270;-40
2021/03/31 09:40:38;;;;;;;16.63;11.07;;;4.10;99.90;;;;;;5126033;28;20226;-40
2021/03/31 09:43:13;;;;;;;18.58;11.90;;;4.10;99.90;;;;;;5125118;28;20301;-40
2021/03/31 09:45:43;;;;;;;15.45;11.82;;;4.00;99.90;;;;;;5126199;28;20203;-40
2021/03/31 09:48:15;;;;;;;16.05;11.25;;;3.90;99.90;;;;;;5125158;28;20200;-40
2021/03/31 09:50:49;;;;;;;18.17;11.50;;;3.90;99.90;;;;;;5125181;28;20204;-41
2021/03/31 09:53:37;;;;;;;19.02;12.48;;;3.90;99.90;;;;;;5125837;28;20207;-39
2021/03/31 09:56:11;;;;;;;24.77;11.90;;;3.90;99.90;;;;;;5125432;28;20636;-40
2021/03/31 09:58:42;;;;;;;18.95;10.90;;;3.90;99.90;;;;;;5125400;28;20289;-39
2021/03/31 10:01:14;;;;;;;16.10;12.10;;;3.80;99.90;;;;;;5125675;28;20196;-38
2021/03/31 10:03:46;;;;;;;15.52;11.52;;;3.80;99.90;;;;;;5124945;28;20204;-40
2021/03/31 10:06:22;;;;;;;19.45;12.95;;;3.80;99.90;;;;;;5124500;28;20196;-41
2021/03/31 10:08:52;;;;;;;15.23;10.73;;;3.70;99.90;;;;;;5125521;28;20216;-40
2021/03/31 10:11:31;;;;;;;18.02;11.45;;;3.70;99.90;;;;;;5124479;28;20200;-38
2021/03/31 10:14:03;;;;;;;23.13;11.98;;;3.60;99.90;;;;;;5124616;28;20211;-39
2021/03/31 10:16:38;;;;;;;17.25;12.07;;;3.60;99.90;;;;;;5124620;28;20261;-39
2021/03/31 10:19:10;;;;;;;20.98;12.80;;;3.60;99.90;;;;;;5124873;28;20235;-40
2021/03/31 10:21:41;;;;;;;17.23;11.80;;;3.60;99.90;;;;;;5124456;28;20211;-40
2021/03/31 10:24:13;;;;;;;16.90;11.15;;;3.50;99.90;;;;;;5124985;28;20211;-37
2021/03/31 10:26:51;;;;;;;17.98;11.60;;;3.50;99.90;;;;;;5118959;28;20253;-40
2021/03/31 10:29:33;;;;;;;18.73;12.95;;;3.50;99.90;;;;;;5125283;28;20253;-39
2021/03/31 10:32:24;;;;;;;15.98;10.50;;;3.50;99.90;;;;;;5124148;28;20291;-39
2021/03/31 10:34:56;;;;;;;15.77;11.93;;;3.40;99.90;;;;;;5125068;28;20632;-40
2021/03/31 10:37:30;;;;;;;18.83;10.98;;;3.40;99.90;;;;;;5124741;28;20211;-40
2021/03/31 10:49:05;;;;;;;17.02;11.35;;;3.30;99.90;;;;;;5110756;28;20219;-39
2021/03/31 10:51:45;;;;;;;20.05;11.88;;;3.30;99.90;;;;;;5124271;28;20204;-39
2021/03/31 10:54:17;;;;;;;17.25;11.23;;;3.20;99.90;;;;;;5124311;28;20211;-42
2021/03/31 10:56:53;;;;;;;16.90;11.80;;;3.20;99.90;;;;;;5123404;28;20254;-42
2021/03/31 10:59:23;;;;;;;19.75;10.80;;;3.20;99.90;;;;;;5124081;28;20195;-38
2021/03/31 11:01:53;;;;;;;14.85;10.63;;;3.20;99.90;;;;;;5124471;28;20200;-39
2021/03/31 11:04:23;;;;;;;14.98;10.70;;;3.20;99.90;;;;;;5124365;28;20259;-40
2021/03/31 11:06:54;;;;;;;17.13;11.20;;;3.10;99.90;;;;;;5123555;28;20207;-40
2021/03/31 11:09:24;;;;;;;16.08;10.55;;;3.00;99.90;;;;;;5124099;28;20272;-41
2021/03/31 11:11:54;;;;;;;16.98;10.90;;;3.10;99.90;;;;;;5123532;28;20199;-39
2021/03/31 11:14:24;;;;;;;15.30;11.27;;;3.00;99.90;;;;;;5124299;28;20682;-41
2021/03/31 11:16:57;;;;;;;19.15;11.98;;;3.00;99.90;;;;;;5124057;28;20207;-40
2021/03/31 11:19:45;;;;;;;14.23;10.20;;;2.90;99.90;;;;;;5123879;28;20276;-39
2021/03/31 11:27:52;;;;;;;14.52;10.43;;;2.90;99.90;;;;;;5106731;28;20216;-40
2021/03/31 11:30:22;;;;;;;16.35;11.05;;;2.80;99.90;;;;;;5123833;28;20200;-40
2021/03/31 11:32:52;;;;;;;18.02;11.57;;;2.70;99.90;;;;;;5123344;28;20252;-40
2021/03/31 11:35:22;;;;;;;18.98;11.20;;;2.70;99.90;;;;;;5124399;28;20245;-42
2021/03/31 11:37:53;;;;;;;15.48;10.40;;;2.70;99.90;;;;;;5123505;28;20292;-41
2021/03/31 11:40:23;;;;;;;14.30;10.30;;;2.70;99.90;;;;;;5123759;28;20226;-40
2021/03/31 11:42:54;;;;;;;16.73;11.38;;;2.80;99.90;;;;;;5122584;28;20227;-40
2021/03/31 11:45:24;;;;;;;20.48;10.80;;;2.80;99.90;;;;;;5123735;28;20253;-41
2021/03/31 11:47:54;;;;;;;13.30;9.73;;;2.70;99.90;;;;;;5123485;28;20264;-39
2021/03/31 11:50:26;;;;;;;19.35;10.70;;;2.70;99.90;;;;;;5121759;28;20275;-40
2021/03/31 11:52:57;;;;;;;15.20;11.52;;;2.70;99.90;;;;;;5113435;28;20204;-40
2021/03/31 11:55:27;;;;;;;14.57;10.02;;;2.70;99.90;;;;;;5123603;28;20191;-40
2021/03/31 11:57:57;;;;;;;19.50;12.95;;;2.80;99.90;;;;;;5122307;28;20296;-40
2021/03/31 12:00:27;;;;;;;15.85;10.68;;;2.80;99.90;;;;;;5122201;28;20252;-39
2021/03/31 12:02:57;;;;;;;19.58;11.18;;;2.80;99.90;;;;;;5118302;28;20188;-40
2021/03/31 12:05:27;;;;;;;18.85;11.98;;;2.80;99.90;;;;;;5123911;28;20201;-40
2021/03/31 12:08:00;;;;;;;14.73;10.70;;;2.80;99.90;;;;;;5122446;28;20313;-40
2021/03/31 12:10:30;;;;;;;15.38;10.65;;;2.80;99.90;;;;;;5123240;28;20254;-40
2021/03/31 12:13:00;;;;;;;19.83;11.98;;;2.70;99.90;;;;;;5122017;28;20273;-40
2021/03/31 12:15:30;;;;;;;20.23;10.82;;;2.70;99.90;;;;;;5123147;28;20307;-39
2021/03/31 12:18:00;;;;;;;17.17;11.52;;;2.70;99.90;;;;;;5122923;28;20211;-39
2021/03/31 12:20:30;;;;;;;13.30;9.80;;;2.70;99.90;;;;;;5123494;28;20275;-40
2021/03/31 12:23:01;;;;;;;17.23;10.50;;;2.70;99.90;;;;;;5122585;28;20257;-42
2021/03/31 12:25:31;;;;;;;16.33;12.40;;;2.60;99.90;;;;;;5123517;28;20192;-40
2021/03/31 12:28:02;;;;;;;13.55;10.30;;;2.60;99.90;;;;;;5122297;28;20215;-39
2021/03/31 12:30:32;;;;;;;14.75;10.20;;;2.60;99.90;;;;;;5122652;28;20195;-40
2021/03/31 12:33:02;;;;;;;12.23;10.23;;;2.50;99.90;;;;;;5123416;28;20179;-43
2021/03/31 12:35:32;;;;;;;12.23;10.05;;;2.60;99.90;;;;;;5123134;28;20233;-37
2021/03/31 12:38:03;;;;;;;15.30;10.60;;;2.50;99.90;;;;;;5122899;28;20234;-40
2021/03/31 12:40:33;;;;;;;14.02;11.98;;;2.60;99.90;;;;;;5123160;28;20204;-39
2021/03/31 12:43:04;;;;;;;12.77;9.60;;;2.40;99.90;;;;;;5122133;28;20717;-40
2021/03/31 12:45:34;;;;;;;15.95;11.52;;;2.30;99.90;;;;;;5122879;28;20196;-41
2021/03/31 12:48:06;;;;;;;13.18;10.07;;;2.30;99.90;;;;;;5119600;28;20298;-41
2021/03/31 12:50:37;;;;;;;15.38;11.68;;;2.30;99.90;;;;;;5122792;28;20196;-38
2021/03/31 12:53:17;;;;;;;15.70;9.05;;;2.30;99.90;;;;;;5122664;28;20200;-39
2021/03/31 12:55:49;;;;;;;14.32;9.07;;;2.20;99.90;;;;;;5122807;28;20696;-40
2021/03/31 12:58:21;;;;;;;16.83;10.50;;;2.20;99.90;;;;;;5122253;28;20226;-40
2021/03/31 13:00:54;;;;;;;16.27;9.98;;;2.20;99.90;;;;;;5122048;28;20214;-39
2021/03/31 13:03:44;;;;;;;14.18;9.65;;;2.10;99.90;;;;;;5124036;28;20203;-40
2021/03/31 13:06:14;;;;;;;17.60;11.55;;;2.10;99.90;;;;;;5126073;28;20216;-39
2021/03/31 13:08:50;;;;;;;14.50;10.20;;;2.00;99.90;;;;;;5127090;28;20238;-38
2021/03/31 13:11:40;;;;;;;16.95;11.68;;;2.10;99.90;;;;;;5126080;28;20683;-40
2021/03/31 13:17:35;;;;;;;17.27;10.80;;;2.00;99.90;;;;;;5123560;28;20204;-42
2021/03/31 13:26:33;;;;;;;15.23;10.23;;;2.10;99.90;;;;;;5062390;28;20202;-41
2021/03/31 13:29:22;;;;;;;18.77;10.27;;;2.10;99.90;;;;;;5062714;28;20229;-39
2021/03/31 13:31:54;;;;;;;15.70;11.40;;;2.10;99.90;;;;;;5055896;28;20209;-39
2021/03/31 13:34:28;;;;;;;15.80;11.57;;;2.10;99.90;;;;;;5062156;28;20576;-41
2021/03/31 13:37:03;;;;;;;14.25;10.15;;;2.10;99.90;;;;;;5063354;28;20696;-40
2021/03/31 13:39:35;;;;;;;11.57;9.30;;;2.00;99.90;;;;;;5063722;28;20233;-41
2021/03/31 13:42:07;;;;;;;21.73;10.80;;;2.00;99.90;;;;;;5061925;28;20202;-39